Historyczne dane pomiarowe

Dodano dane terminowe – wersja testowa.

Dane z okresu 1951-2019

Wersja bazy: 1.34 [2019-03-16, lista zmian], aktualizacja planowana na 2019-04-15

Dane meteo z obszaru Polski uzyskane na podstawie danych udostępnionych przez Instytut Meteorologii i Gospodarki Wodnej – Państwowy Instytut Badawczy.

 

Wybierz Datę:    

       

TemperaturaWilgotnośćWiatrCiśnienieOpadyŚniegCzas trwania zjawisk
 Stacja t tx tn tng RH VA  wxwx mslp ppp RRR   cm mm wxwxwxwxwxwxwx
2012-07-16 16.2 20.9 11.2--- 5.3----- 0.1------------
2012-07-17 14.1 18.8 9.0--- 5.7----- 0.0------------
2012-07-18 15.4 19.9 9.5--- 5.3----- 0.0------------
2012-07-19 18.8 26.7 12.9--- 5.7----- 0.8------------
2012-07-20 18.2 23.4 12.5--- 5.0----- 2.5------------
2012-07-21 15.0 18.9 11.6--- 7.3----- 2.8------------
2012-07-22 16.2 21.3 10.4--- 5.0----- 0.0------------
2012-07-23 16.7 23.9 6.0--- 1.7----- 0.0------------
2012-07-24 18.2 26.5 5.4--- 2.0----- 0.0------------
2012-07-25 21.5 29.3 12.0--- 5.7----- 7.9------------
2012-07-26 22.0 27.3 16.8--- 5.3----- 0.0------------
2012-07-27 23.5 31.7 14.4--- 4.3----- 0.0------------
2012-07-28 23.8 31.6 13.5--- 2.3----- 2.3------------
2012-07-29 23.0 32.6 13.4--- 4.0----- 0.7------------
2012-07-30 19.3 21.9 15.9--- 7.3----- 0.3------------
2012-07-31 19.6 25.5 12.5--- 4.7----- 0.0------------
2012-08-01 19.9 27.1 9.5--- 3.3----- 0.0------------
2012-08-02 21.3 29.5 9.9--- 3.0----- 0.0------------
2012-08-03 22.9 32.2 11.9--- 3.3----- 0.0------------
2012-08-04 21.9 28.0 15.0--- 4.0----- 0.0------------
2012-08-05 22.6 30.0 11.5--- 4.0----- 0.0------------
2012-08-06 25.6 35.2 14.0--- 3.7----- 0.0------------
2012-08-07 22.1 29.9 17.0--- 4.7----- 0.0------------
2012-08-08 17.4 25.0 8.4--- 4.0----- 0.0------------
2012-08-09 15.2 23.4 4.5--- 4.7----- 1.5------------
2012-08-10 14.5 20.4 8.5--- 4.3----- 0.1------------
2012-08-11 13.5 18.6 6.9--- 6.7----- 0.0------------
2012-08-12 12.6 16.3 9.0--- 7.3----- 7.5------------
2012-08-13 12.4 14.5 10.0--- 8.0----- 41.4------------
2012-08-14 12.3 13.5 9.9--- 8.0----- 16.6------------
186.7 ms

 

Źródłem pochodzenia danych jest Instytut Meteorologii i Gospodarki Wodnej – Państwowy Instytut Badawczy. Dane Instytutu Meteorologii i Gospodarki Wodnej – Państwowego Instytutu Badawczego zostały przetworzone.

Dane źródłowe można odnaleźć na stronie https://dane.imgw.pl